createdAt,value
2018-07-04T00:00:40.195Z,4.47
2018-07-04T00:03:20.602Z,4.20
2018-07-04T00:06:01.012Z,4.70
2018-07-04T00:08:41.582Z,4.80
2018-07-04T00:11:22.441Z,4.77
2018-07-04T00:14:02.744Z,4.93
2018-07-04T00:16:43.004Z,4.23
2018-07-04T00:19:23.370Z,4.30
2018-07-04T00:22:03.620Z,4.23
2018-07-04T00:24:43.900Z,4.70
2018-07-04T00:27:24.100Z,3.73
2018-07-04T00:30:04.346Z,5.10
2018-07-04T00:32:44.701Z,5.50
2018-07-04T00:35:25.100Z,5.70
2018-07-04T00:38:05.606Z,5.90
2018-07-04T00:40:45.886Z,6.17
2018-07-04T00:43:26.197Z,5.93
2018-07-04T00:46:06.477Z,6.07
2018-07-04T00:48:46.711Z,5.90
2018-07-04T00:51:27.015Z,5.83
2018-07-04T00:54:07.199Z,6.20
2018-07-04T00:56:47.489Z,6.37
2018-07-04T00:59:27.957Z,5.37
2018-07-04T01:02:08.267Z,5.50
2018-07-04T01:04:48.518Z,5.47
2018-07-04T01:07:28.841Z,5.35
2018-07-04T01:10:09.141Z,4.43
2018-07-04T01:12:49.445Z,4.83
2018-07-04T01:15:29.801Z,4.83
2018-07-04T01:18:10.206Z,4.90
2018-07-04T01:20:55.740Z,4.80
2018-07-04T01:23:37.670Z,5.35
2018-07-04T01:26:17.943Z,5.70
2018-07-04T01:28:58.182Z,4.63
2018-07-04T01:31:38.342Z,5.35
2018-07-04T01:34:18.622Z,5.07
2018-07-04T01:36:59.075Z,5.17
2018-07-04T01:39:39.358Z,5.30
2018-07-04T01:42:19.610Z,5.23
2018-07-04T01:44:59.763Z,5.10
2018-07-04T01:47:40.038Z,5.78
2018-07-04T01:50:20.359Z,5.70
2018-07-04T01:53:00.752Z,5.20
2018-07-04T01:55:41.031Z,5.00
2018-07-04T01:58:21.450Z,5.67
2018-07-04T02:01:01.888Z,6.50
2018-07-04T02:03:42.227Z,7.27
2018-07-04T02:06:22.564Z,6.93
2018-07-04T02:09:02.964Z,6.83
2018-07-04T02:11:43.328Z,6.27
2018-07-04T02:14:23.825Z,6.30
2018-07-04T02:17:05.109Z,6.37
2018-07-04T02:19:45.304Z,7.27
2018-07-04T02:22:25.559Z,6.47
2018-07-04T02:25:06.103Z,5.87
2018-07-04T02:27:46.389Z,6.80
2018-07-04T02:30:26.581Z,5.97
2018-07-04T02:33:07.021Z,7.00
2018-07-04T02:35:47.269Z,6.80
2018-07-04T02:38:27.638Z,7.30
2018-07-04T02:41:07.937Z,7.43
2018-07-04T02:43:48.399Z,7.63
2018-07-04T02:46:34.118Z,7.80
2018-07-04T02:49:14.326Z,8.10
2018-07-04T02:51:54.618Z,7.67
2018-07-04T02:54:34.712Z,7.20
2018-07-04T02:57:14.925Z,8.33
2018-07-04T02:59:55.277Z,8.13
2018-07-04T03:02:35.694Z,8.40
2018-07-04T03:05:15.910Z,8.77
2018-07-04T03:07:56.228Z,9.13
2018-07-04T03:10:36.686Z,8.40
2018-07-04T03:13:16.874Z,8.40
2018-07-04T03:15:57.245Z,7.90
2018-07-04T03:18:37.608Z,7.73
2018-07-04T03:21:17.954Z,7.20
2018-07-04T03:23:58.429Z,7.60
2018-07-04T03:26:38.779Z,7.63
2018-07-04T03:29:19.104Z,6.80
2018-07-04T03:31:59.347Z,8.47
2018-07-04T03:34:39.545Z,6.77
2018-07-04T03:37:19.935Z,8.17
2018-07-04T03:40:00.863Z,7.40
2018-07-04T03:42:41.082Z,7.23
2018-07-04T03:45:21.439Z,7.90
2018-07-04T03:48:01.715Z,8.10
2018-07-04T03:50:41.909Z,8.67
2018-07-04T03:53:22.288Z,8.50
2018-07-04T03:56:02.506Z,8.00
2018-07-04T03:58:42.803Z,7.83
2018-07-04T04:01:23.230Z,8.13
2018-07-04T04:04:04.350Z,7.73
2018-07-04T04:06:44.589Z,8.10
2018-07-04T04:09:25.099Z,8.40
2018-07-04T04:12:05.388Z,7.67
2018-07-04T04:14:45.736Z,8.00
2018-07-04T04:17:26.106Z,7.10
2018-07-04T04:20:06.450Z,7.50
2018-07-04T04:22:46.881Z,7.83
2018-07-04T04:25:27.134Z,7.40
2018-07-04T04:28:07.490Z,8.10
2018-07-04T04:30:47.684Z,7.50
2018-07-04T04:33:28.104Z,7.55
2018-07-04T04:36:08.297Z,7.17
2018-07-04T04:38:48.673Z,7.50
2018-07-04T04:41:29.005Z,7.20
2018-07-04T04:44:09.351Z,7.40
2018-07-04T04:46:50.000Z,8.00
2018-07-04T04:49:30.268Z,7.15
2018-07-04T04:52:10.536Z,7.90
2018-07-04T04:54:50.895Z,7.33
2018-07-04T04:57:31.097Z,8.00
2018-07-04T05:00:11.364Z,7.50
2018-07-04T05:02:51.674Z,6.70
2018-07-04T05:05:31.936Z,8.03
2018-07-04T05:08:12.193Z,8.53
2018-07-04T05:10:52.701Z,8.13
2018-07-04T05:13:32.869Z,8.35
2018-07-04T05:16:13.228Z,8.57
2018-07-04T05:18:53.541Z,7.87
2018-07-04T05:21:33.842Z,7.05
2018-07-04T05:24:14.298Z,8.17
2018-07-04T05:26:54.526Z,8.10
2018-07-04T05:29:35.380Z,7.47
2018-07-04T05:32:15.754Z,7.10
2018-07-04T05:34:56.020Z,8.25
2018-07-04T05:37:36.384Z,7.20
2018-07-04T05:40:17.664Z,7.70
2018-07-04T05:42:58.010Z,9.13
2018-07-04T05:45:38.353Z,9.30
2018-07-04T05:48:18.863Z,7.53
2018-07-04T05:50:59.330Z,6.70
2018-07-04T05:53:39.551Z,6.95
2018-07-04T05:56:20.077Z,7.27
2018-07-04T05:59:00.377Z,7.13
2018-07-04T06:01:40.611Z,6.73
2018-07-04T06:04:21.041Z,6.57
2018-07-04T06:07:01.376Z,6.20
2018-07-04T06:09:41.845Z,7.10
2018-07-04T06:12:23.983Z,6.40
2018-07-04T06:15:04.313Z,6.67
2018-07-04T06:17:44.610Z,6.20
2018-07-04T06:20:24.953Z,6.10
2018-07-04T06:23:07.129Z,4.70
2018-07-04T06:25:47.421Z,5.37
2018-07-04T06:28:27.775Z,6.00
2018-07-04T06:31:08.205Z,4.80
2018-07-04T06:33:48.546Z,5.07
2018-07-04T06:36:29.072Z,5.40
2018-07-04T06:38:56.972Z,5.00
2018-07-04T06:41:24.913Z,5.25
2018-07-04T06:43:52.843Z,4.63
2018-07-04T06:46:20.797Z,4.58
2018-07-04T06:48:48.716Z,4.90
2018-07-04T06:51:16.658Z,4.25
2018-07-04T06:53:44.590Z,4.10
2018-07-04T06:56:12.506Z,4.30
2018-07-04T06:58:40.473Z,4.13
2018-07-04T07:01:08.386Z,3.63
2018-07-04T07:03:48.685Z,4.70
2018-07-04T07:06:28.994Z,3.80
2018-07-04T07:09:09.168Z,4.30
2018-07-04T07:11:49.520Z,3.60
2018-07-04T07:14:29.769Z,4.10
2018-07-04T07:17:10.045Z,3.87
2018-07-04T07:19:50.253Z,3.50
2018-07-04T07:22:30.572Z,3.57
2018-07-04T07:25:10.934Z,3.30
2018-07-04T07:27:51.833Z,3.20
2018-07-04T07:30:32.150Z,2.90
2018-07-04T07:33:12.526Z,3.03
2018-07-04T07:35:52.852Z,3.30
2018-07-04T07:38:33.134Z,3.23
2018-07-04T07:41:13.425Z,3.23
2018-07-04T07:43:53.767Z,3.30
2018-07-04T07:46:34.153Z,3.73
2018-07-04T07:49:14.398Z,3.80
2018-07-04T07:51:54.773Z,3.00
2018-07-04T07:54:35.181Z,3.10
2018-07-04T07:57:15.557Z,3.23
2018-07-04T07:59:55.777Z,3.17
2018-07-04T08:02:36.089Z,3.40
2018-07-04T08:05:16.405Z,3.00
2018-07-04T08:07:56.913Z,3.00
2018-07-04T08:10:37.221Z,3.60
2018-07-04T08:13:17.609Z,2.67
2018-07-04T08:15:58.095Z,3.23
2018-07-04T08:18:38.369Z,3.70
2018-07-04T08:21:18.669Z,2.90
2018-07-04T08:23:59.103Z,3.00
2018-07-04T08:26:39.353Z,3.63
2018-07-04T08:29:19.657Z,2.80
2018-07-04T08:31:59.819Z,3.43
2018-07-04T08:34:41.650Z,3.80
2018-07-04T08:37:22.108Z,3.43
2018-07-04T08:40:02.478Z,3.60
2018-07-04T08:42:42.785Z,3.30
2018-07-04T08:45:23.112Z,4.85
2018-07-04T08:48:03.460Z,3.23
2018-07-04T08:50:43.985Z,3.50
2018-07-04T08:53:24.446Z,3.80
2018-07-04T08:56:05.173Z,3.07
2018-07-04T08:58:45.320Z,3.30
2018-07-04T09:01:25.888Z,3.10
2018-07-04T09:04:06.372Z,3.73
2018-07-04T09:06:46.577Z,3.50
2018-07-04T09:09:26.809Z,3.57
2018-07-04T09:12:07.305Z,3.40
2018-07-04T09:14:48.785Z,3.20
2018-07-04T09:17:29.051Z,3.20
2018-07-04T09:20:09.369Z,3.07
2018-07-04T09:22:49.841Z,3.50
2018-07-04T09:25:30.785Z,3.47
2018-07-04T09:28:11.144Z,4.13
2018-07-04T09:30:51.510Z,3.27
2018-07-04T09:33:31.724Z,3.60
2018-07-04T09:36:11.878Z,4.05
2018-07-04T09:38:52.281Z,3.00
2018-07-04T09:41:32.753Z,2.80
2018-07-04T09:44:13.095Z,3.20
2018-07-04T09:46:53.416Z,3.07
2018-07-04T09:49:34.024Z,3.25
2018-07-04T09:52:14.252Z,3.20
2018-07-04T09:54:54.745Z,3.27
2018-07-04T09:57:35.802Z,2.98
2018-07-04T10:00:19.865Z,3.47
2018-07-04T10:03:00.284Z,3.13
2018-07-04T10:05:40.736Z,3.90
2018-07-04T10:08:20.993Z,3.47
2018-07-04T10:11:01.446Z,3.33
2018-07-04T10:13:41.726Z,2.80
2018-07-04T10:16:21.953Z,3.63
2018-07-04T10:19:02.431Z,3.23
2018-07-04T10:21:42.817Z,3.10
2018-07-04T10:24:23.313Z,3.13
2018-07-04T10:27:03.537Z,2.67
2018-07-04T10:29:43.754Z,3.20
2018-07-04T10:32:24.137Z,2.50
2018-07-04T10:35:04.504Z,2.80
2018-07-04T10:37:45.156Z,3.10
2018-07-04T10:40:25.466Z,3.17
2018-07-04T10:43:05.873Z,2.70
2018-07-04T10:45:46.192Z,2.37
2018-07-04T10:48:26.916Z,2.50
2018-07-04T10:51:07.361Z,2.80
2018-07-04T10:53:47.804Z,2.73
2018-07-04T10:56:28.088Z,2.00
2018-07-04T10:59:08.372Z,2.93
2018-07-04T11:01:51.266Z,2.33
2018-07-04T11:04:31.591Z,1.90
2018-07-04T11:07:12.109Z,2.47
2018-07-04T11:09:52.351Z,2.00
2018-07-04T11:12:32.855Z,1.67
2018-07-04T11:15:13.259Z,2.00
2018-07-04T11:17:53.521Z,1.80
2018-07-04T11:20:34.149Z,1.40
2018-07-04T11:23:14.529Z,1.60
2018-07-04T11:25:54.989Z,2.17
2018-07-04T11:28:35.353Z,1.23
2018-07-04T11:31:15.655Z,1.83
2018-07-04T11:33:56.004Z,1.73
2018-07-04T11:36:36.245Z,1.62
2018-07-04T11:39:16.781Z,1.60
2018-07-04T11:41:57.257Z,1.60
2018-07-04T11:44:40.024Z,1.67
2018-07-04T11:47:08.072Z,2.00
2018-07-04T11:49:36.044Z,1.50
2018-07-04T11:52:03.942Z,1.90
2018-07-04T11:54:31.922Z,1.70
2018-07-04T11:56:59.922Z,1.87
2018-07-04T11:59:27.785Z,1.70
2018-07-04T12:01:55.737Z,1.73
2018-07-04T12:04:36.019Z,1.83
2018-07-04T12:07:06.851Z,1.80
2018-07-04T12:09:39.282Z,1.97
2018-07-04T12:12:07.378Z,2.33
2018-07-04T12:14:35.287Z,1.80
2018-07-04T12:17:03.213Z,1.50
2018-07-04T12:19:31.165Z,1.37
2018-07-04T12:21:59.060Z,2.07
2018-07-04T12:24:27.030Z,1.47
2018-07-04T12:26:54.986Z,1.60
2018-07-04T12:29:22.902Z,2.12
2018-07-04T12:31:50.870Z,2.07
2018-07-04T12:34:18.832Z,2.17
2018-07-04T12:36:46.730Z,2.30
2018-07-04T12:39:14.829Z,1.87
2018-07-04T12:41:43.049Z,1.80
2018-07-04T12:44:10.997Z,2.40
2018-07-04T12:46:38.998Z,1.83
2018-07-04T12:49:06.967Z,1.90
2018-07-04T12:51:35.820Z,1.77
2018-07-04T12:54:09.149Z,2.00
2018-07-04T12:56:49.534Z,1.97
2018-07-04T12:59:29.726Z,2.53
2018-07-04T13:02:09.913Z,1.83
2018-07-04T13:04:50.245Z,1.80
2018-07-04T13:07:30.437Z,2.35
2018-07-04T13:10:10.772Z,2.77
2018-07-04T13:12:50.959Z,1.80
2018-07-04T13:15:31.281Z,1.90
2018-07-04T13:18:11.585Z,2.00
2018-07-04T13:20:51.921Z,1.57
2018-07-04T13:23:32.499Z,1.77
2018-07-04T13:26:13.039Z,1.70
2018-07-04T13:28:53.454Z,1.93
2018-07-04T13:31:33.816Z,1.72
2018-07-04T13:34:14.158Z,1.70
2018-07-04T13:36:54.350Z,1.70
2018-07-04T13:39:34.592Z,1.90
2018-07-04T13:42:14.784Z,1.80
2018-07-04T13:44:55.182Z,1.37
2018-07-04T13:47:35.466Z,1.65
2018-07-04T13:50:17.245Z,1.47
2018-07-04T13:52:57.751Z,2.00
2018-07-04T13:55:37.975Z,1.73
2018-07-04T13:58:18.402Z,1.50
2018-07-04T14:00:58.696Z,1.30
2018-07-04T14:03:39.049Z,1.37
2018-07-04T14:06:19.330Z,1.73
2018-07-04T14:08:59.783Z,2.13
2018-07-04T14:11:40.058Z,1.70
2018-07-04T14:14:20.537Z,1.95
2018-07-04T14:17:00.977Z,2.10
2018-07-04T14:19:41.463Z,1.53
2018-07-04T14:22:21.802Z,1.70
2018-07-04T14:25:02.077Z,2.03
2018-07-04T14:27:42.478Z,1.33
2018-07-04T14:30:22.693Z,1.83
2018-07-04T14:33:03.061Z,1.57
2018-07-04T14:35:43.621Z,1.70
2018-07-04T14:38:24.027Z,1.70
2018-07-04T14:41:04.373Z,1.70
2018-07-04T14:43:44.687Z,1.80
2018-07-04T14:46:25.142Z,1.50
2018-07-04T14:49:05.337Z,2.00
2018-07-04T14:51:45.675Z,2.10
2018-07-04T14:54:29.656Z,2.03
2018-07-04T14:57:10.126Z,1.87
2018-07-04T14:59:50.366Z,1.40
2018-07-04T15:02:30.969Z,1.70
2018-07-04T15:05:11.299Z,1.83
2018-07-04T15:07:51.819Z,1.67
2018-07-04T15:10:32.069Z,1.67
2018-07-04T15:13:12.390Z,1.87
2018-07-04T15:15:52.684Z,1.43
2018-07-04T15:18:32.749Z,2.20
2018-07-04T15:21:13.091Z,1.33
2018-07-04T15:23:53.829Z,1.80
2018-07-04T15:26:34.161Z,1.80
2018-07-04T15:29:14.461Z,2.77
2018-07-04T15:31:54.748Z,2.77
2018-07-04T15:34:35.413Z,1.63
2018-07-04T15:37:15.671Z,1.00
2018-07-04T15:39:56.161Z,2.00
2018-07-04T15:42:36.574Z,1.40
2018-07-04T15:45:16.903Z,1.70
2018-07-04T15:47:57.241Z,1.90
2018-07-04T15:50:37.601Z,1.87
2018-07-04T15:53:17.997Z,1.67
2018-07-04T15:55:58.223Z,2.20
2018-07-04T15:58:38.433Z,1.60
2018-07-04T16:01:18.693Z,1.43
2018-07-04T16:03:59.073Z,1.23
2018-07-04T16:06:39.564Z,1.57
2018-07-04T16:09:19.842Z,1.87
2018-07-04T16:12:00.098Z,1.97
2018-07-04T16:14:40.550Z,1.57
2018-07-04T16:17:20.872Z,1.50
2018-07-04T16:20:01.099Z,2.33
2018-07-04T16:22:41.537Z,1.60
2018-07-04T16:25:21.952Z,1.90
2018-07-04T16:28:02.292Z,1.57
2018-07-04T16:30:42.549Z,1.67
2018-07-04T16:33:22.949Z,2.00
2018-07-04T16:36:03.337Z,1.80
2018-07-04T16:38:43.823Z,1.30
2018-07-04T16:41:24.189Z,1.70
2018-07-04T16:44:04.643Z,2.20
2018-07-04T16:46:44.839Z,1.70
2018-07-04T16:49:25.045Z,1.97
2018-07-04T16:52:05.305Z,2.10
2018-07-04T16:54:45.483Z,1.97
2018-07-04T16:57:25.684Z,1.83
2018-07-04T17:00:06.061Z,2.37
2018-07-04T17:02:46.609Z,1.80
2018-07-04T17:05:27.017Z,1.70
2018-07-04T17:08:07.371Z,1.83
2018-07-04T17:10:47.678Z,2.10
2018-07-04T17:13:28.073Z,2.37
2018-07-04T17:16:08.480Z,2.07
2018-07-04T17:18:48.777Z,2.30
2018-07-04T17:21:29.097Z,2.50
2018-07-04T17:24:09.537Z,1.90
2018-07-04T17:26:49.910Z,2.57
2018-07-04T17:29:30.270Z,2.40
2018-07-04T17:32:10.354Z,2.10
2018-07-04T17:34:50.536Z,2.00
2018-07-04T17:37:30.825Z,2.37
2018-07-04T17:40:10.967Z,2.30
2018-07-04T17:42:51.505Z,2.40
2018-07-04T17:45:31.841Z,2.12
2018-07-04T17:48:12.458Z,2.20
2018-07-04T17:50:52.609Z,2.58
2018-07-04T17:53:32.871Z,2.25
2018-07-04T17:56:12.948Z,2.30
2018-07-04T17:58:53.372Z,2.37
2018-07-04T18:01:33.585Z,2.60
2018-07-04T18:04:15.607Z,2.47
2018-07-04T18:06:55.823Z,2.73
2018-07-04T18:09:36.379Z,2.70
2018-07-04T18:12:16.832Z,2.80
2018-07-04T18:14:57.346Z,2.40
2018-07-04T18:17:37.721Z,2.92
2018-07-04T18:20:18.060Z,3.00
2018-07-04T18:22:58.529Z,3.03
2018-07-04T18:25:39.183Z,3.42
2018-07-04T18:28:19.683Z,3.20
2018-07-04T18:31:00.023Z,3.22
2018-07-04T18:33:40.373Z,2.65
2018-07-04T18:36:20.877Z,2.87
2018-07-04T18:39:01.351Z,3.50
2018-07-04T18:41:41.729Z,2.73
2018-07-04T18:44:22.053Z,2.80
2018-07-04T18:47:02.442Z,3.50
2018-07-04T18:49:42.610Z,3.80
2018-07-04T18:52:22.751Z,3.83
2018-07-04T18:55:03.037Z,3.73
2018-07-04T18:57:43.419Z,4.37
2018-07-04T19:00:23.867Z,3.53
2018-07-04T19:03:04.300Z,3.83
2018-07-04T19:05:44.685Z,3.62
2018-07-04T19:08:25.093Z,3.90
2018-07-04T19:11:05.387Z,4.28
2018-07-04T19:13:45.844Z,3.30
2018-07-04T19:16:26.107Z,4.53
2018-07-04T19:19:06.564Z,3.80
2018-07-04T19:21:46.874Z,3.70
2018-07-04T19:24:27.227Z,4.08
2018-07-04T19:27:07.586Z,4.27
2018-07-04T19:29:47.900Z,4.10
2018-07-04T19:32:28.176Z,3.80
2018-07-04T19:35:08.544Z,4.80
2018-07-04T19:37:48.850Z,4.63
2018-07-04T19:40:29.338Z,4.47
2018-07-04T19:43:09.623Z,4.63
2018-07-04T19:45:50.190Z,5.43
2018-07-04T19:48:30.569Z,5.30
2018-07-04T19:51:10.825Z,6.50
2018-07-04T19:53:51.080Z,6.70
2018-07-04T19:56:31.506Z,8.33
2018-07-04T19:59:11.983Z,6.63
2018-07-04T20:01:52.224Z,7.60
2018-07-04T20:04:32.600Z,7.00
2018-07-04T20:07:12.965Z,8.20
2018-07-04T20:09:53.437Z,8.17
2018-07-04T20:12:33.717Z,8.97
2018-07-04T20:15:14.029Z,8.27
2018-07-04T20:17:55.229Z,8.50
2018-07-04T20:20:35.695Z,8.10
2018-07-04T20:23:16.201Z,7.30
2018-07-04T20:25:56.503Z,6.60
2018-07-04T20:28:36.877Z,6.10
2018-07-04T20:31:17.155Z,7.67
2018-07-04T20:33:57.531Z,6.80
2018-07-04T20:36:37.615Z,6.50
2018-07-04T20:39:17.947Z,5.60
2018-07-04T20:41:58.369Z,6.10
2018-07-04T20:44:39.006Z,4.93
2018-07-04T20:47:19.470Z,5.00
2018-07-04T20:49:59.635Z,5.50
2018-07-04T20:52:40.206Z,5.57
2018-07-04T20:55:20.450Z,5.63
2018-07-04T20:58:00.650Z,5.80
2018-07-04T21:00:41.025Z,6.10
2018-07-04T21:03:22.046Z,5.70
2018-07-04T21:06:02.513Z,6.30
2018-07-04T21:08:42.790Z,5.80
2018-07-04T21:11:23.015Z,5.90
2018-07-04T21:14:03.517Z,6.03
2018-07-04T21:16:45.112Z,6.63
2018-07-04T21:19:25.560Z,6.10
2018-07-04T21:22:05.735Z,6.07
2018-07-04T21:24:46.027Z,5.83
2018-07-04T21:27:26.401Z,6.30
2018-07-04T21:30:06.779Z,5.97
2018-07-04T21:32:47.012Z,6.67
2018-07-04T21:35:27.261Z,5.70
2018-07-04T21:38:07.629Z,6.83
2018-07-04T21:40:47.843Z,6.87
2018-07-04T21:43:28.112Z,6.50
2018-07-04T21:46:08.488Z,6.00
2018-07-04T21:48:49.825Z,6.23
2018-07-04T21:51:30.189Z,5.60
2018-07-04T21:54:10.496Z,5.83
2018-07-04T21:56:51.106Z,6.53
2018-07-04T21:59:31.802Z,6.27
2018-07-04T22:02:12.176Z,7.17
2018-07-04T22:04:56.498Z,6.33
2018-07-04T22:07:36.809Z,7.30
2018-07-04T22:10:17.266Z,6.90
2018-07-04T22:12:57.481Z,7.30
2018-07-04T22:15:37.739Z,5.90
2018-07-04T22:18:18.177Z,6.37
2018-07-04T22:20:58.259Z,6.27
2018-07-04T22:23:38.732Z,7.53
2018-07-04T22:26:18.945Z,6.60
2018-07-04T22:28:59.385Z,7.20
2018-07-04T22:31:39.718Z,6.85
2018-07-04T22:34:20.017Z,6.67
2018-07-04T22:37:00.565Z,7.20
2018-07-04T22:39:45.189Z,6.77
2018-07-04T22:42:25.493Z,6.17
2018-07-04T22:45:06.592Z,6.23
2018-07-04T22:47:47.048Z,6.93
2018-07-04T22:50:27.950Z,7.40
2018-07-04T22:53:08.391Z,7.90
2018-07-04T22:55:48.510Z,7.40
2018-07-04T22:58:28.824Z,7.90
2018-07-04T23:01:09.074Z,7.40
2018-07-04T23:03:49.528Z,7.50
2018-07-04T23:06:29.969Z,6.40
2018-07-04T23:09:10.388Z,7.40
2018-07-04T23:11:50.721Z,8.07
2018-07-04T23:14:31.155Z,7.50
2018-07-04T23:17:11.528Z,7.60
2018-07-04T23:19:52.005Z,8.17
2018-07-04T23:22:32.501Z,7.83
2018-07-04T23:25:12.977Z,7.60
2018-07-04T23:27:53.279Z,8.70
2018-07-04T23:30:33.537Z,7.43
2018-07-04T23:33:13.797Z,7.47
2018-07-04T23:35:54.134Z,7.53
2018-07-04T23:38:34.477Z,8.37
2018-07-04T23:41:14.728Z,7.97
2018-07-04T23:43:54.957Z,8.87
2018-07-04T23:46:35.349Z,8.13
2018-07-04T23:49:15.623Z,8.20
2018-07-04T23:51:56.030Z,8.07
2018-07-04T23:54:36.427Z,8.00
2018-07-04T23:57:16.733Z,8.90
2018-07-04T23:59:56.905Z,8.17
